Hauptseite
METAR-TAF:

METAR-TAF

Flughäfen :

Sam Mbakwe Airport

Owerri, Nigeria

Breite: 5-25-35N, Länge: 7-12-20E, Höhe: 114 m

Beobachtung

Neuester Wetterbericht von vor 9 Stunden und 40 Minuten, um 17:00 UTC
Windstille
Temperatur 30°C
Luftfeuchtigkeit 75%
Luftdruck 1010 hPa
Sichtweite 10 km oder mehr
Leicht bewölkt in der Höhe von 1200 ft
Leicht bewölkt in der Höhe von 2000 ft, Kumulonimbus.

METAR: DNIM 171700Z 00000KT 9999 FEW012 FEW020CB 30/25 Q1010 NOSIG

Zeit: 03:40 (02:40 UTC)


TAF: fehlend

Wetterbeobachtungen und Prognosen von mehr als 4000 Flughäfen (METAR und TAF Bericht).

Die verfügbaren Stationen werden durch gelbe und rote Markierungen auf der Karte dargestellt.

Führen Sie die Maus auf sie, um den Namen der Station zu sehen.

Darauf klicken, um die Beobachtung von Wetterbeobachtungen und Prognosen zu sehen.

Um die Karte zu ändern : klicken Sie auf den grünen Tasten mit einem schwarzen Kreuz Zum Vergrößern, auf den grünen Button mit einem Gedankenstrich zu verkleinern, oder auf die grünen Pfeile für benachbarte Karten.


METAR-TAF: